Řízení letového provozu České republiky
Letiste: LKPR Aktualizace: 12.11.2018 20:31:07  UTC
 METAR LKPR 12.11. 20:30 ...
METAR LKPR 122030Z 16005KT 9999 OVC011 09/07 Q1023 NOSIG RMK REG QNH 1018=
 TAF LKPR 12.11. 17:00 ...
TAF LKPR 121700Z 1218/1400 16006KT 9999 BKN015      TEMPO 1218/1300 4000 BR BKN008      BECMG 1300/1302 2500 BR BKN005      TEMPO 1302/1308 VRB02KT 0800 FG BKN003      PROB30 TEMPO 1302/1307 0300 FG BKN002      BECMG 1309/1311 25012KT 9999 SCT025      TEMPO 1311/1400 27016G26KT=